createdAt,value
2017-08-27T00:01:46.898Z,19.10
2017-08-27T00:04:13.360Z,18.67
2017-08-27T00:06:39.741Z,19.97
2017-08-27T00:09:06.374Z,18.10
2017-08-27T00:11:32.742Z,18.83
2017-08-27T00:13:59.113Z,18.07
2017-08-27T00:16:25.529Z,18.57
2017-08-27T00:18:51.899Z,19.80
2017-08-27T00:21:18.429Z,18.60
2017-08-27T00:23:44.846Z,19.00
2017-08-27T00:26:11.211Z,18.03
2017-08-27T00:28:37.575Z,19.73
2017-08-27T00:31:03.923Z,18.53
2017-08-27T00:33:30.310Z,16.97
2017-08-27T00:35:56.699Z,18.57
2017-08-27T00:38:23.072Z,19.20
2017-08-27T00:40:49.477Z,18.27
2017-08-27T00:43:15.904Z,19.03
2017-08-27T00:45:42.296Z,18.73
2017-08-27T00:48:08.715Z,19.70
2017-08-27T00:50:35.129Z,19.90
2017-08-27T00:53:01.562Z,18.70
2017-08-27T00:55:28.021Z,19.10
2017-08-27T00:57:54.435Z,18.40
2017-08-27T01:00:20.830Z,18.60
2017-08-27T01:02:47.256Z,16.17
2017-08-27T01:05:13.710Z,18.33
2017-08-27T01:07:40.197Z,19.60
2017-08-27T01:10:06.575Z,18.20
2017-08-27T01:12:32.934Z,19.13
2017-08-27T01:14:59.387Z,19.50
2017-08-27T01:17:25.771Z,20.60
2017-08-27T01:19:52.183Z,19.80
2017-08-27T01:22:18.660Z,19.83
2017-08-27T01:24:45.083Z,19.30
2017-08-27T01:27:11.517Z,17.20
2017-08-27T01:29:37.889Z,18.37
2017-08-27T01:32:04.287Z,18.00
2017-08-27T01:34:30.696Z,19.40
2017-08-27T01:36:57.080Z,18.20
2017-08-27T01:39:23.434Z,19.13
2017-08-27T01:41:49.808Z,20.60
2017-08-27T01:44:16.208Z,19.17
2017-08-27T01:46:42.577Z,19.00
2017-08-27T01:49:08.963Z,19.77
2017-08-27T01:51:37.194Z,18.83
2017-08-27T01:54:03.686Z,20.47
2017-08-27T01:56:30.045Z,19.90
2017-08-27T01:58:56.388Z,22.87
2017-08-27T02:01:23.043Z,22.47
2017-08-27T02:03:49.424Z,19.50
2017-08-27T02:06:16.632Z,21.37
2017-08-27T02:08:43.796Z,22.10
2017-08-27T02:11:11.138Z,21.40
2017-08-27T02:13:37.650Z,22.30
2017-08-27T02:16:04.010Z,20.20
2017-08-27T02:18:30.356Z,21.27
2017-08-27T02:20:56.719Z,21.33
2017-08-27T02:23:23.105Z,21.37
2017-08-27T02:25:49.503Z,22.23
2017-08-27T02:28:15.921Z,20.60
2017-08-27T02:30:42.292Z,20.93
2017-08-27T02:33:08.659Z,21.50
2017-08-27T02:35:35.029Z,23.37
2017-08-27T02:38:01.408Z,23.10
2017-08-27T02:40:27.809Z,23.03
2017-08-27T02:42:54.164Z,30.13
2017-08-27T02:45:20.529Z,28.93
2017-08-27T02:47:46.930Z,27.83
2017-08-27T02:50:13.298Z,26.77
2017-08-27T02:52:39.675Z,29.63
2017-08-27T02:55:06.053Z,31.70
2017-08-27T02:57:32.833Z,30.53
2017-08-27T02:59:59.251Z,29.57
2017-08-27T03:02:25.641Z,30.07
2017-08-27T03:04:52.046Z,27.70
2017-08-27T03:07:18.439Z,29.40
2017-08-27T03:09:44.860Z,25.30
2017-08-27T03:12:11.222Z,26.93
2017-08-27T03:14:37.615Z,28.87
2017-08-27T03:17:03.999Z,27.60
2017-08-27T03:19:30.377Z,28.57
2017-08-27T03:21:56.762Z,27.13
2017-08-27T03:24:23.157Z,27.57
2017-08-27T03:26:49.568Z,30.17
2017-08-27T03:29:15.962Z,30.63
2017-08-27T03:31:42.334Z,27.03
2017-08-27T03:34:08.729Z,30.30
2017-08-27T03:36:35.952Z,29.77
2017-08-27T03:39:02.382Z,30.50
2017-08-27T03:41:28.734Z,29.93
2017-08-27T03:43:55.090Z,29.93
2017-08-27T03:46:21.467Z,29.43
2017-08-27T03:48:47.833Z,28.03
2017-08-27T03:51:14.241Z,29.40
2017-08-27T03:53:40.632Z,31.20
2017-08-27T03:56:07.027Z,28.70
2017-08-27T03:58:33.437Z,34.03
2017-08-27T04:00:59.855Z,39.23
2017-08-27T04:03:26.232Z,34.80
2017-08-27T04:05:52.593Z,37.27
2017-08-27T04:08:18.996Z,33.20
2017-08-27T04:10:45.382Z,34.50
2017-08-27T04:13:11.748Z,29.70
2017-08-27T04:15:38.130Z,37.47
2017-08-27T04:18:04.516Z,35.50
2017-08-27T04:20:30.897Z,33.70
2017-08-27T04:22:57.276Z,36.10
2017-08-27T04:25:23.701Z,36.67
2017-08-27T04:27:50.070Z,34.40
2017-08-27T04:30:16.472Z,33.03
2017-08-27T04:32:42.906Z,32.03
2017-08-27T04:35:09.313Z,36.50
2017-08-27T04:37:35.696Z,36.40
2017-08-27T04:40:02.040Z,32.10
2017-08-27T04:42:28.422Z,36.97
2017-08-27T04:44:54.798Z,40.03
2017-08-27T04:47:21.223Z,40.27
2017-08-27T04:49:47.590Z,40.70
2017-08-27T04:52:13.999Z,41.90
2017-08-27T04:54:40.431Z,41.93
2017-08-27T04:57:06.774Z,40.47
2017-08-27T04:59:33.126Z,44.00
2017-08-27T05:01:59.509Z,46.33
2017-08-27T05:04:25.892Z,47.03
2017-08-27T05:06:52.242Z,46.50
2017-08-27T05:09:18.732Z,48.57
2017-08-27T05:11:45.089Z,41.20
2017-08-27T05:14:11.455Z,41.37
2017-08-27T05:16:37.779Z,46.30
2017-08-27T05:19:04.144Z,43.93
2017-08-27T05:21:30.572Z,46.73
2017-08-27T05:23:56.925Z,44.37
2017-08-27T05:26:23.330Z,43.07
2017-08-27T05:28:49.719Z,41.10
2017-08-27T05:31:16.107Z,41.67
2017-08-27T05:33:42.512Z,41.63
2017-08-27T05:36:08.896Z,44.30
2017-08-27T05:38:35.279Z,46.00
2017-08-27T05:41:01.657Z,46.13
2017-08-27T05:43:28.036Z,47.70
2017-08-27T05:45:54.386Z,44.17
2017-08-27T05:48:20.758Z,48.50
2017-08-27T05:50:47.194Z,49.80
2017-08-27T05:53:13.599Z,45.07
2017-08-27T05:55:40.003Z,52.33
2017-08-27T05:58:06.355Z,41.57
2017-08-27T06:00:32.738Z,48.17
2017-08-27T06:02:59.079Z,47.97
2017-08-27T06:05:25.464Z,48.27
2017-08-27T06:07:51.838Z,47.30
2017-08-27T06:10:18.246Z,48.10
2017-08-27T06:12:44.584Z,45.13
2017-08-27T06:15:10.957Z,50.77
2017-08-27T06:17:37.324Z,53.53
2017-08-27T06:20:03.687Z,53.90
2017-08-27T06:22:30.096Z,52.87
2017-08-27T06:24:56.463Z,47.93
2017-08-27T06:27:22.848Z,56.70
2017-08-27T06:29:49.198Z,56.17
2017-08-27T06:32:15.552Z,54.43
2017-08-27T06:34:41.892Z,55.33
2017-08-27T06:37:08.259Z,53.83
2017-08-27T06:39:34.634Z,48.27
2017-08-27T06:42:01.021Z,50.30
2017-08-27T06:44:27.418Z,49.73
2017-08-27T06:46:53.800Z,48.10
2017-08-27T06:49:20.161Z,44.13
2017-08-27T06:51:46.556Z,39.90
2017-08-27T06:54:12.935Z,39.70
2017-08-27T06:56:39.296Z,42.97
2017-08-27T06:59:05.668Z,38.83
2017-08-27T07:01:32.087Z,36.47
2017-08-27T07:03:58.445Z,39.13
2017-08-27T07:06:24.842Z,34.97
2017-08-27T07:08:51.231Z,36.40
2017-08-27T07:11:17.616Z,32.60
2017-08-27T07:13:44.002Z,31.67
2017-08-27T07:16:10.414Z,27.97
2017-08-27T07:18:36.816Z,26.77
2017-08-27T07:21:03.225Z,26.17
2017-08-27T07:23:29.606Z,21.33
2017-08-27T07:25:55.987Z,23.07
2017-08-27T07:28:22.380Z,20.83
2017-08-27T07:30:48.731Z,19.70
2017-08-27T07:33:15.101Z,17.80
2017-08-27T07:35:41.502Z,19.23
2017-08-27T07:38:07.909Z,17.70
2017-08-27T07:40:34.290Z,18.43
2017-08-27T07:43:00.681Z,19.03
2017-08-27T07:45:27.061Z,15.80
2017-08-27T07:47:53.520Z,16.07
2017-08-27T07:50:19.894Z,16.40
2017-08-27T07:52:46.283Z,15.90
2017-08-27T07:55:12.647Z,16.10
2017-08-27T07:57:39.050Z,15.13
2017-08-27T08:00:05.438Z,15.77
2017-08-27T08:02:31.840Z,16.40
2017-08-27T08:04:58.237Z,15.53
2017-08-27T08:07:24.703Z,18.20
2017-08-27T08:09:51.130Z,15.30
2017-08-27T08:12:17.537Z,14.77
2017-08-27T08:14:43.899Z,15.37
2017-08-27T08:17:10.274Z,15.67
2017-08-27T08:19:36.669Z,15.07
2017-08-27T08:22:03.079Z,15.97
2017-08-27T08:24:29.428Z,16.97
2017-08-27T08:26:55.810Z,15.63
2017-08-27T08:29:22.185Z,15.50
2017-08-27T08:31:48.559Z,15.50
2017-08-27T08:34:14.926Z,14.10
2017-08-27T08:36:41.280Z,14.90
2017-08-27T08:39:07.656Z,15.57
2017-08-27T08:41:34.058Z,16.53
2017-08-27T08:44:00.455Z,17.90
2017-08-27T08:46:26.826Z,16.57
2017-08-27T08:48:53.195Z,15.43
2017-08-27T08:51:19.582Z,13.63
2017-08-27T08:53:45.949Z,12.20
2017-08-27T08:56:12.340Z,13.83
2017-08-27T08:58:38.704Z,12.73
2017-08-27T09:01:05.114Z,14.60
2017-08-27T09:03:31.512Z,15.00
2017-08-27T09:05:57.893Z,13.20
2017-08-27T09:08:24.270Z,13.50
2017-08-27T09:10:50.683Z,15.63
2017-08-27T09:13:17.067Z,14.80
2017-08-27T09:15:43.493Z,14.33
2017-08-27T09:18:09.834Z,13.37
2017-08-27T09:20:36.212Z,10.30
2017-08-27T09:23:02.617Z,10.13
2017-08-27T09:25:28.985Z,9.10
2017-08-27T09:27:55.357Z,10.30
2017-08-27T09:30:21.783Z,8.47
2017-08-27T09:32:48.187Z,10.03
2017-08-27T09:35:14.579Z,8.37
2017-08-27T09:37:40.956Z,8.30
2017-08-27T09:40:07.343Z,10.00
2017-08-27T09:42:33.736Z,10.13
2017-08-27T09:45:00.131Z,9.60
2017-08-27T09:47:26.522Z,8.50
2017-08-27T09:49:52.917Z,9.57
2017-08-27T09:52:19.278Z,11.33
2017-08-27T09:54:45.639Z,10.10
2017-08-27T09:57:12.020Z,8.43
2017-08-27T09:59:38.404Z,8.90
2017-08-27T10:02:04.776Z,7.70
2017-08-27T10:04:31.141Z,7.97
2017-08-27T10:06:57.499Z,8.73
2017-08-27T10:09:23.913Z,8.23
2017-08-27T10:11:50.289Z,7.70
2017-08-27T10:14:16.675Z,7.47
2017-08-27T10:16:43.059Z,6.30
2017-08-27T10:19:09.456Z,5.40
2017-08-27T10:21:35.795Z,3.77
2017-08-27T10:24:02.186Z,3.80
2017-08-27T10:26:28.583Z,3.77
2017-08-27T10:28:54.957Z,3.87
2017-08-27T10:31:21.291Z,3.90
2017-08-27T10:33:47.701Z,4.43
2017-08-27T10:36:14.103Z,4.23
2017-08-27T10:38:40.473Z,3.87
2017-08-27T10:41:06.845Z,3.57
2017-08-27T10:43:33.182Z,3.60
2017-08-27T10:45:59.556Z,3.53
2017-08-27T10:48:25.907Z,3.30
2017-08-27T10:50:52.246Z,3.20
2017-08-27T10:53:18.645Z,3.47
2017-08-27T10:55:45.022Z,3.60
2017-08-27T10:58:11.387Z,4.40
2017-08-27T11:00:37.755Z,2.87
2017-08-27T11:03:04.128Z,3.30
2017-08-27T11:05:30.471Z,3.27
2017-08-27T11:07:57.008Z,2.33
2017-08-27T11:10:23.372Z,2.90
2017-08-27T11:12:49.765Z,3.17
2017-08-27T11:15:16.149Z,2.63
2017-08-27T11:17:42.540Z,2.50
2017-08-27T11:20:08.911Z,2.90
2017-08-27T11:22:35.293Z,2.67
2017-08-27T11:25:01.649Z,3.10
2017-08-27T11:27:27.993Z,2.90
2017-08-27T11:29:54.409Z,3.67
2017-08-27T11:32:20.770Z,3.53
2017-08-27T11:34:47.138Z,2.70
2017-08-27T11:37:13.522Z,2.97
2017-08-27T11:39:39.919Z,2.80
2017-08-27T11:42:06.690Z,2.63
2017-08-27T11:44:33.130Z,2.73
2017-08-27T11:47:00.305Z,2.90
2017-08-27T11:49:26.683Z,3.10
2017-08-27T11:51:53.072Z,2.70
2017-08-27T11:54:19.435Z,3.30
2017-08-27T11:56:45.809Z,2.33
2017-08-27T11:59:12.190Z,3.57
2017-08-27T12:01:38.594Z,3.37
2017-08-27T12:04:04.947Z,3.03
2017-08-27T12:06:31.314Z,2.90
2017-08-27T12:08:57.665Z,3.53
2017-08-27T12:11:24.048Z,2.67
2017-08-27T12:13:50.427Z,3.30
2017-08-27T12:16:16.801Z,3.37
2017-08-27T12:18:43.225Z,3.50
2017-08-27T12:21:09.603Z,3.33
2017-08-27T12:23:35.972Z,3.30
2017-08-27T12:26:02.360Z,3.57
2017-08-27T12:28:28.737Z,2.80
2017-08-27T12:30:55.105Z,3.53
2017-08-27T12:33:21.507Z,3.73
2017-08-27T12:35:47.906Z,3.43
2017-08-27T12:38:14.330Z,3.23
2017-08-27T12:40:40.700Z,2.87
2017-08-27T12:43:07.068Z,3.07
2017-08-27T12:45:33.444Z,3.80
2017-08-27T12:47:59.832Z,3.40
2017-08-27T12:50:26.293Z,2.83
2017-08-27T12:52:52.705Z,3.40
2017-08-27T12:55:19.083Z,3.50
2017-08-27T12:57:45.520Z,3.20
2017-08-27T13:00:11.949Z,3.37
2017-08-27T13:02:39.726Z,3.10
2017-08-27T13:05:06.149Z,2.95
2017-08-27T13:07:32.648Z,3.40
2017-08-27T13:09:59.139Z,2.57
2017-08-27T13:12:25.691Z,3.17
2017-08-27T13:14:52.080Z,2.90
2017-08-27T13:17:18.537Z,3.03
2017-08-27T13:19:45.008Z,3.10
2017-08-27T13:22:11.406Z,2.90
2017-08-27T13:24:37.785Z,3.10
2017-08-27T13:27:04.180Z,2.67
2017-08-27T13:29:30.617Z,2.80
2017-08-27T13:31:56.985Z,3.30
2017-08-27T13:34:23.358Z,3.20
2017-08-27T13:36:49.766Z,4.33
2017-08-27T13:39:16.183Z,3.70
2017-08-27T13:41:42.583Z,4.17
2017-08-27T13:44:09.002Z,3.40
2017-08-27T13:46:35.416Z,2.83
2017-08-27T13:49:01.811Z,3.40
2017-08-27T13:51:28.167Z,3.20
2017-08-27T13:53:54.590Z,3.10
2017-08-27T13:56:20.973Z,3.33
2017-08-27T13:58:47.665Z,3.30
2017-08-27T14:01:14.124Z,3.33
2017-08-27T14:03:41.001Z,2.77
2017-08-27T14:06:07.378Z,3.23
2017-08-27T14:08:33.790Z,3.53
2017-08-27T14:11:00.209Z,3.00
2017-08-27T14:13:26.652Z,3.63
2017-08-27T14:15:53.044Z,3.23
2017-08-27T14:18:19.437Z,2.90
2017-08-27T14:20:45.866Z,2.80
2017-08-27T14:23:12.337Z,3.60
2017-08-27T14:25:39.358Z,3.00
2017-08-27T14:28:05.851Z,3.17
2017-08-27T14:30:32.252Z,3.53
2017-08-27T14:32:58.656Z,4.20
2017-08-27T14:35:25.057Z,3.40
2017-08-27T14:37:51.463Z,3.30
2017-08-27T14:40:17.850Z,3.10
2017-08-27T14:42:44.258Z,3.00
2017-08-27T14:45:10.618Z,3.33
2017-08-27T14:47:37.007Z,3.13
2017-08-27T14:50:03.410Z,2.80
2017-08-27T14:52:29.790Z,3.50
2017-08-27T14:54:56.222Z,3.33
2017-08-27T14:57:22.620Z,3.60
2017-08-27T14:59:49.081Z,23.40
2017-08-27T15:02:15.492Z,13.90
2017-08-27T15:04:41.875Z,3.30
2017-08-27T15:07:08.311Z,3.20
2017-08-27T15:09:34.709Z,3.00
2017-08-27T15:12:01.102Z,3.63
2017-08-27T15:14:27.500Z,16.00
2017-08-27T15:16:53.895Z,4.53
2017-08-27T15:19:20.301Z,2.83
2017-08-27T15:21:46.694Z,8.07
2017-08-27T15:24:13.107Z,5.90
2017-08-27T15:26:39.512Z,3.00
2017-08-27T15:29:05.924Z,4.10
2017-08-27T15:31:32.326Z,3.63
2017-08-27T15:33:58.699Z,3.80
2017-08-27T15:36:25.088Z,3.33
2017-08-27T15:38:51.497Z,2.93
2017-08-27T15:41:17.880Z,2.37
2017-08-27T15:43:44.271Z,3.30
2017-08-27T15:46:10.700Z,3.50
2017-08-27T15:48:37.128Z,3.33
2017-08-27T15:51:03.536Z,3.00
2017-08-27T15:53:29.933Z,2.73
2017-08-27T15:55:56.306Z,3.17
2017-08-27T15:58:22.727Z,4.40
2017-08-27T16:00:49.109Z,3.07
2017-08-27T16:03:15.510Z,65.77
2017-08-27T16:05:41.925Z,5.27
2017-08-27T16:08:08.411Z,6.30
2017-08-27T16:10:34.788Z,4.60
2017-08-27T16:13:01.205Z,14.07
2017-08-27T16:15:27.642Z,5.90
2017-08-27T16:17:54.023Z,28.50
2017-08-27T16:20:20.409Z,4.03
2017-08-27T16:22:46.830Z,6.60
2017-08-27T16:25:13.251Z,3.33
2017-08-27T16:27:39.662Z,3.13
2017-08-27T16:30:06.066Z,2.90
2017-08-27T16:32:32.485Z,3.73
2017-08-27T16:34:58.909Z,2.57
2017-08-27T16:37:25.329Z,3.60
2017-08-27T16:39:51.762Z,3.10
2017-08-27T16:42:18.520Z,3.40
2017-08-27T16:44:45.032Z,3.67
2017-08-27T16:47:23.616Z,4.37
2017-08-27T16:49:50.067Z,3.90
2017-08-27T16:52:16.610Z,3.30
2017-08-27T16:54:43.051Z,3.00
2017-08-27T16:57:09.452Z,2.97
2017-08-27T16:59:35.864Z,3.50
2017-08-27T17:02:02.324Z,2.87
2017-08-27T17:04:28.731Z,2.60
2017-08-27T17:06:55.164Z,3.00
2017-08-27T17:09:21.605Z,2.87
2017-08-27T17:11:48.101Z,2.67
2017-08-27T17:14:14.545Z,2.70
2017-08-27T17:16:41.013Z,3.10
2017-08-27T17:19:07.448Z,2.93
2017-08-27T17:21:33.935Z,3.07
2017-08-27T17:24:00.394Z,2.80
2017-08-27T17:26:26.832Z,2.57
2017-08-27T17:28:53.271Z,2.93
2017-08-27T17:31:19.702Z,2.93
2017-08-27T17:33:46.859Z,2.60
2017-08-27T17:36:16.305Z,3.10
2017-08-27T17:38:43.621Z,3.20
2017-08-27T17:41:10.082Z,2.53
2017-08-27T17:43:36.529Z,2.93
2017-08-27T17:46:02.991Z,2.70
2017-08-27T17:48:29.472Z,2.80
2017-08-27T17:50:55.965Z,2.93
2017-08-27T17:53:22.706Z,2.67
2017-08-27T17:55:49.164Z,3.57
2017-08-27T17:58:15.634Z,3.13
2017-08-27T18:00:42.118Z,2.93
2017-08-27T18:03:08.585Z,3.10
2017-08-27T18:05:34.975Z,2.47
2017-08-27T18:08:01.402Z,2.63
2017-08-27T18:10:27.851Z,2.90
2017-08-27T18:12:54.294Z,3.07
2017-08-27T18:15:20.793Z,2.30
2017-08-27T18:17:47.250Z,3.03
2017-08-27T18:20:13.658Z,3.20
2017-08-27T18:22:40.090Z,2.87
2017-08-27T18:25:06.518Z,3.50
2017-08-27T18:27:32.929Z,3.57
2017-08-27T18:29:59.342Z,3.80
2017-08-27T18:32:25.827Z,3.00
2017-08-27T18:34:52.313Z,2.80
2017-08-27T18:37:18.708Z,3.23
2017-08-27T18:39:45.134Z,2.87
2017-08-27T18:42:11.553Z,3.20
2017-08-27T18:44:37.928Z,3.23
2017-08-27T18:47:04.283Z,3.50
2017-08-27T18:49:30.697Z,3.40
2017-08-27T18:51:57.049Z,2.70
2017-08-27T18:54:23.453Z,2.63
2017-08-27T18:56:49.938Z,3.20
2017-08-27T18:59:16.394Z,2.93
2017-08-27T19:01:42.868Z,2.97
2017-08-27T19:04:09.766Z,2.90
2017-08-27T19:06:36.259Z,2.87
2017-08-27T19:09:03.260Z,4.60
2017-08-27T19:11:29.778Z,3.73
2017-08-27T19:13:56.390Z,3.30
2017-08-27T19:16:22.838Z,3.80
2017-08-27T19:18:50.710Z,3.83
2017-08-27T19:21:17.225Z,4.17
2017-08-27T19:23:44.273Z,3.57
2017-08-27T19:26:11.678Z,3.97
2017-08-27T19:28:38.240Z,3.43
2017-08-27T19:31:04.931Z,4.00
2017-08-27T19:33:31.365Z,3.83
2017-08-27T19:35:57.806Z,4.13
2017-08-27T19:38:24.582Z,3.90
2017-08-27T19:40:51.085Z,4.23
2017-08-27T19:43:17.522Z,4.03
2017-08-27T19:45:43.996Z,4.13
2017-08-27T19:48:11.757Z,3.70
2017-08-27T19:50:38.627Z,4.03
2017-08-27T19:53:05.055Z,4.30
2017-08-27T19:55:31.591Z,3.90
2017-08-27T19:57:58.080Z,4.13
2017-08-27T20:00:24.534Z,3.90
2017-08-27T20:02:50.978Z,4.20
2017-08-27T20:05:17.374Z,4.17
2017-08-27T20:07:43.781Z,4.30
2017-08-27T20:10:10.271Z,4.30
2017-08-27T20:12:36.688Z,4.43
2017-08-27T20:15:03.140Z,4.93
2017-08-27T20:17:29.593Z,4.13
2017-08-27T20:19:55.984Z,4.27
2017-08-27T20:22:22.394Z,3.60
2017-08-27T20:24:49.148Z,3.93
2017-08-27T20:27:15.937Z,4.13
2017-08-27T20:29:42.319Z,4.43
2017-08-27T20:32:08.745Z,4.43
2017-08-27T20:34:35.913Z,4.17
2017-08-27T20:37:02.392Z,4.30
2017-08-27T20:39:28.846Z,4.20
2017-08-27T20:41:55.265Z,5.33
2017-08-27T20:44:21.734Z,5.10
2017-08-27T20:46:48.175Z,5.97
2017-08-27T20:49:14.575Z,5.40
2017-08-27T20:51:40.991Z,5.07
2017-08-27T20:54:07.424Z,5.37
2017-08-27T20:56:33.791Z,5.60
2017-08-27T20:59:00.311Z,6.30
2017-08-27T21:01:26.717Z,5.20
2017-08-27T21:03:53.130Z,5.37
2017-08-27T21:06:19.551Z,5.00
2017-08-27T21:08:45.985Z,5.03
2017-08-27T21:11:12.380Z,5.50
2017-08-27T21:13:38.773Z,4.60
2017-08-27T21:16:05.156Z,4.90
2017-08-27T21:18:31.555Z,5.57
2017-08-27T21:20:57.985Z,5.27
2017-08-27T21:23:24.440Z,5.50
2017-08-27T21:25:50.907Z,5.03
2017-08-27T21:28:17.286Z,5.50
2017-08-27T21:30:44.106Z,5.20
2017-08-27T21:33:10.557Z,5.20
2017-08-27T21:35:36.959Z,5.80
2017-08-27T21:38:03.591Z,5.10
2017-08-27T21:40:29.997Z,5.80
2017-08-27T21:42:56.382Z,5.97
2017-08-27T21:45:22.755Z,7.60
2017-08-27T21:47:49.759Z,5.80
2017-08-27T21:50:16.198Z,4.63
2017-08-27T21:52:42.679Z,5.00
2017-08-27T21:55:09.122Z,5.17
2017-08-27T21:57:35.508Z,5.00
2017-08-27T22:00:01.906Z,4.83
2017-08-27T22:02:28.258Z,4.77
2017-08-27T22:04:54.630Z,4.83
2017-08-27T22:07:21.015Z,5.00
2017-08-27T22:09:47.440Z,5.33
2017-08-27T22:12:13.852Z,4.83
2017-08-27T22:14:40.250Z,4.83
2017-08-27T22:17:06.622Z,4.80
2017-08-27T22:19:33.009Z,5.23
2017-08-27T22:21:59.434Z,5.20
2017-08-27T22:24:25.826Z,4.80
2017-08-27T22:26:52.244Z,5.30
2017-08-27T22:29:18.637Z,5.07
2017-08-27T22:31:45.007Z,5.00
2017-08-27T22:34:11.432Z,5.53
2017-08-27T22:36:37.832Z,5.30
2017-08-27T22:39:04.297Z,4.90
2017-08-27T22:41:30.718Z,6.03
2017-08-27T22:43:57.126Z,4.70
2017-08-27T22:46:23.504Z,5.13
2017-08-27T22:48:49.931Z,5.10
2017-08-27T22:51:16.304Z,5.30
2017-08-27T22:53:42.653Z,5.50
2017-08-27T22:56:09.087Z,5.33
2017-08-27T22:58:35.486Z,4.80
2017-08-27T23:01:01.901Z,4.83
2017-08-27T23:03:28.363Z,5.30
2017-08-27T23:05:54.737Z,5.50
2017-08-27T23:08:21.128Z,4.80
2017-08-27T23:10:47.507Z,5.23
2017-08-27T23:13:13.875Z,6.00
2017-08-27T23:15:40.248Z,4.97
2017-08-27T23:18:06.675Z,5.87
2017-08-27T23:20:33.073Z,5.50
2017-08-27T23:22:59.491Z,5.97
2017-08-27T23:25:25.857Z,4.93
2017-08-27T23:27:52.289Z,5.20
2017-08-27T23:30:18.698Z,5.50
2017-08-27T23:32:45.072Z,5.10
2017-08-27T23:35:11.472Z,5.80
2017-08-27T23:37:37.857Z,5.00
2017-08-27T23:40:04.287Z,4.77
2017-08-27T23:42:30.658Z,5.43
2017-08-27T23:44:57.052Z,5.73
2017-08-27T23:47:23.461Z,5.17
2017-08-27T23:49:51.284Z,6.00
2017-08-27T23:52:18.617Z,5.63
2017-08-27T23:54:45.039Z,5.40
2017-08-27T23:57:13.860Z,5.57
2017-08-27T23:59:40.388Z,5.30
